Time;durP1;ratioP1;P1;durP2;ratioP2;P2;SDS_P1;SDS_P2;PMS_P1;PMS_P2;Temp;Humidity;BMP_temperature;BMP_pressure;BME280_temperature;BME280_humidity;BME280_pressure;Samples;Min_cycle;Max_cycle;Signal;HPM_P1;HPM_P2
2021/11/08 00:02:11;;;;;;;26.27;8.75;;;7.20;99.90;;;;;;5059527;28;20056;-83
2021/11/08 00:04:45;;;;;;;25.52;9.70;;;7.20;99.90;;;;;;5063151;28;20063;-83
2021/11/08 00:07:19;;;;;;;27.92;9.45;;;7.10;99.90;;;;;;5063887;28;20053;-82
2021/11/08 00:09:48;;;;;;;22.13;10.07;;;7.20;99.90;;;;;;5065140;28;20045;-82
2021/11/08 00:12:21;;;;;;;20.60;7.85;;;7.30;99.90;;;;;;5066404;28;20041;-83
2021/11/08 00:14:55;;;;;;;51.20;8.90;;;5.70;99.90;;;;;;5049243;28;20063;-82
2021/11/08 00:20:18;;;;;;;29.08;7.97;;;7.20;99.90;;;;;;5061648;28;20060;-84
2021/11/08 00:23:00;;;;;;;21.13;8.27;;;7.60;99.90;;;;;;5042093;28;20036;-83
2021/11/08 00:25:29;;;;;;;22.50;8.63;;;7.20;99.90;;;;;;5063490;28;20051;-85
2021/11/08 00:27:58;;;;;;;25.80;8.68;;;7.30;99.90;;;;;;5044056;28;20060;-82
2021/11/08 00:30:30;;;;;;;34.22;9.93;;;7.20;99.90;;;;;;5058101;28;20064;-81
2021/11/08 00:33:00;;;;;;;18.98;7.43;;;6.90;99.90;;;;;;5057517;28;20052;-82
2021/11/08 00:35:35;;;;;;;35.22;7.32;;;7.20;99.90;;;;;;5061152;28;20049;-81
2021/11/08 00:38:05;;;;;;;26.55;8.57;;;7.20;99.90;;;;;;5061329;28;20045;-82
2021/11/08 00:40:35;;;;;;;22.20;6.57;;;7.20;99.90;;;;;;5057658;28;20044;-81
2021/11/08 00:43:06;;;;;;;44.33;12.52;;;7.30;99.90;;;;;;5060236;28;20040;-80
2021/11/08 00:45:36;;;;;;;24.55;9.02;;;7.30;99.90;;;;;;5061734;28;20051;-84
2021/11/08 00:48:05;;;;;;;27.48;8.75;;;7.20;99.90;;;;;;5076968;28;20049;-82
2021/11/08 00:50:34;;;;;;;31.40;9.10;;;7.20;99.90;;;;;;5061104;28;20052;-81
2021/11/08 00:53:04;;;;;;;29.48;9.10;;;7.20;99.90;;;;;;5062913;28;20052;-82
2021/11/08 00:55:39;;;;;;;25.42;8.52;;;7.30;99.90;;;;;;5029493;28;20051;-82
2021/11/08 01:01:08;;;;;;;20.02;7.65;;;7.10;99.90;;;;;;5073385;28;20067;-82
2021/11/08 01:03:43;;;;;;;22.80;8.35;;;7.30;99.90;;;;;;5045095;28;20052;-83
2021/11/08 01:06:16;;;;;;;21.20;6.82;;;7.10;99.90;;;;;;5062711;28;20044;-81
2021/11/08 01:08:46;;;;;;;32.90;9.35;;;7.10;99.90;;;;;;5061158;28;20059;-81
2021/11/08 01:11:27;;;;;;;25.73;8.00;;;7.10;99.90;;;;;;5061357;28;20069;-86
2021/11/08 01:14:04;;;;;;;22.55;9.10;;;7.00;99.90;;;;;;5045505;28;20060;-83
2021/11/08 01:16:55;;;;;;;32.72;7.07;;;6.90;99.90;;;;;;5045598;28;20053;-85
2021/11/08 01:19:32;;;;;;;19.52;7.15;;;7.00;99.90;;;;;;5064160;28;20041;-86
2021/11/08 01:22:05;;;;;;;30.75;8.68;;;7.10;99.90;;;;;;5046934;28;20053;-80
2021/11/08 01:24:38;;;;;;;19.33;5.97;;;7.00;99.90;;;;;;5063390;28;20433;-84
2021/11/08 01:27:07;;;;;;;21.50;9.60;;;7.00;99.90;;;;;;5063776;28;20061;-85
2021/11/08 01:29:36;;;;;;;31.38;8.68;;;7.00;99.90;;;;;;5047432;28;20037;-84
2021/11/08 01:32:06;;;;;;;20.25;7.07;;;7.20;99.90;;;;;;5032968;28;20057;-84
2021/11/08 01:34:35;;;;;;;28.92;9.65;;;7.00;99.90;;;;;;5041721;28;20057;-84
2021/11/08 01:37:10;;;;;;;20.88;8.18;;;6.90;99.90;;;;;;5057913;28;20522;-84
2021/11/08 01:39:43;;;;;;;29.38;9.82;;;8.30;99.90;;;;;;5070254;28;20406;-83
2021/11/08 01:42:13;;;;;;;24.65;6.72;;;6.90;99.90;;;;;;5060252;28;20041;-84
2021/11/08 01:44:45;;;;;;;50.45;9.30;;;6.90;99.90;;;;;;5061617;28;20044;-84
2021/11/08 01:47:19;;;;;;;24.52;6.45;;;6.80;99.90;;;;;;5042558;28;20059;-83
2021/11/08 01:49:49;;;;;;;28.88;8.10;;;6.90;99.90;;;;;;5059271;28;20044;-84
2021/11/08 01:52:17;;;;;;;22.90;6.82;;;6.70;99.90;;;;;;5060803;28;20041;-83
2021/11/08 01:54:47;;;;;;;15.00;6.97;;;6.80;99.90;;;;;;5061152;28;20060;-83
2021/11/08 01:57:15;;;;;;;27.88;8.07;;;6.80;99.90;;;;;;5056404;28;20060;-85
2021/11/08 01:59:50;;;;;;;25.42;8.90;;;6.80;99.90;;;;;;5050837;28;20048;-84
2021/11/08 02:02:26;;;;;;;22.33;7.47;;;6.80;99.90;;;;;;5060791;28;20051;-84
2021/11/08 02:04:55;;;;;;;23.88;7.60;;;6.70;99.90;;;;;;5059848;28;20045;-84
2021/11/08 02:07:25;;;;;;;18.00;5.93;;;6.70;99.90;;;;;;5059714;28;20052;-85
2021/11/08 02:09:54;;;;;;;18.58;6.65;;;6.60;99.90;;;;;;5077134;28;20585;-82
2021/11/08 02:12:23;;;;;;;26.60;7.85;;;7.40;99.90;;;;;;5076587;28;20053;-85
2021/11/08 02:14:52;;;;;;;24.30;7.82;;;6.60;99.90;;;;;;5058955;28;20049;-83
2021/11/08 02:17:23;;;;;;;25.52;7.38;;;6.50;99.90;;;;;;5043946;28;20533;-84
2021/11/08 02:19:57;;;;;;;;;;;6.50;99.90;;;;;;5077381;28;20049;-83
2021/11/08 02:22:26;;;;;;;25.23;9.63;;;6.50;99.90;;;;;;5063021;28;19928;-83
2021/11/08 02:24:58;;;;;;;26.60;8.43;;;6.90;99.90;;;;;;5047475;28;20044;-83
2021/11/08 02:27:28;;;;;;;22.23;8.18;;;6.50;99.90;;;;;;5060341;28;20050;-84
2021/11/08 02:29:57;;;;;;;24.67;8.48;;;7.30;99.90;;;;;;5062785;28;20057;-85
2021/11/08 02:32:29;;;;;;;40.72;9.18;;;6.50;99.90;;;;;;5049889;28;20052;-83
2021/11/08 02:35:04;;;;;;;80.28;11.60;;;6.90;99.90;;;;;;5067576;28;20051;-85
2021/11/08 02:37:33;;;;;;;40.75;12.70;;;6.30;99.90;;;;;;5067239;28;20049;-84
2021/11/08 02:40:03;;;;;;;21.38;7.15;;;6.40;99.90;;;;;;5066488;28;20045;-84
2021/11/08 02:42:33;;;;;;;28.92;9.32;;;6.50;99.90;;;;;;5056701;28;20044;-84
2021/11/08 02:45:07;;;;;;;22.55;7.68;;;6.30;99.90;;;;;;5046482;28;20045;-83
2021/11/08 02:47:36;;;;;;;24.35;7.88;;;6.30;99.90;;;;;;5047439;28;20419;-84
2021/11/08 02:50:07;;;;;;;30.15;9.88;;;6.30;99.90;;;;;;5064173;28;20041;-83
2021/11/08 02:52:36;;;;;;;24.90;9.32;;;6.30;99.90;;;;;;5065096;28;20045;-84
2021/11/08 02:55:05;;;;;;;22.42;8.60;;;6.60;99.90;;;;;;5077743;28;20060;-84
2021/11/08 02:57:37;;;;;;;24.63;8.10;;;6.20;99.90;;;;;;5066156;28;20057;-86
2021/11/08 03:00:11;;;;;;;28.35;6.72;;;6.40;99.90;;;;;;5071061;28;20048;-82
2021/11/08 03:02:51;;;;;;;20.00;5.97;;;5.80;99.90;;;;;;5065618;28;20041;-84
2021/11/08 03:05:31;;;;;;;30.85;7.60;;;6.20;99.90;;;;;;5066983;28;20052;-83
2021/11/08 03:08:06;;;;;;;;;;;6.10;99.90;;;;;;5065034;28;20131;-86
2021/11/08 03:10:38;;;;;;;19.42;6.07;;;6.10;99.90;;;;;;5065574;28;19920;-84
2021/11/08 03:13:18;;;;;;;18.48;6.18;;;6.10;99.90;;;;;;5064559;28;20040;-84
2021/11/08 03:16:05;;;;;;;25.35;7.75;;;6.10;99.90;;;;;;5047768;28;20783;-83
2021/11/08 03:18:42;;;;;;;27.73;7.93;;;6.10;99.90;;;;;;5064493;28;20067;-84
2021/11/08 03:21:18;;;;;;;22.88;8.30;;;5.90;99.90;;;;;;5064407;28;20429;-84
2021/11/08 03:23:56;;;;;;;19.83;8.55;;;7.20;99.90;;;;;;5064905;28;20051;-84
2021/11/08 03:26:36;;;;;;;27.65;8.10;;;6.00;99.90;;;;;;5063990;28;20051;-84
2021/11/08 03:29:06;;;;;;;22.95;9.48;;;5.90;99.90;;;;;;5064981;28;20041;-84
2021/11/08 03:31:35;;;;;;;29.75;9.98;;;5.80;99.90;;;;;;5065185;28;20055;-83
2021/11/08 03:34:15;;;;;;;28.00;7.40;;;5.90;99.90;;;;;;5064512;28;20056;-84
2021/11/08 03:36:49;;;;;;;17.52;7.13;;;5.90;99.90;;;;;;5064760;28;20045;-84
2021/11/08 03:39:18;;;;;;;34.42;10.20;;;5.70;99.90;;;;;;5064733;28;20045;-85
2021/11/08 03:41:51;;;;;;;24.45;7.93;;;6.00;99.90;;;;;;5048964;28;20051;-82
2021/11/08 03:44:21;;;;;;;27.25;8.15;;;5.90;99.90;;;;;;5047586;28;20049;-83
2021/11/08 03:46:56;;;;;;;33.00;9.82;;;5.90;99.90;;;;;;5080821;28;20041;-85
2021/11/08 03:49:34;;;;;;;25.90;9.55;;;6.50;99.90;;;;;;5052035;28;20041;-82
2021/11/08 03:52:04;;;;;;;32.40;8.50;;;6.80;99.90;;;;;;5050591;28;20063;-82
2021/11/08 03:54:34;;;;;;;22.40;6.75;;;5.80;99.90;;;;;;5082001;28;20045;-83
2021/11/08 03:57:03;;;;;;;21.08;7.05;;;5.90;99.90;;;;;;5064709;28;20057;-83
2021/11/08 03:59:31;;;;;;;23.10;8.38;;;5.80;99.90;;;;;;4711153;28;9999877;-82
2021/11/08 04:02:02;;;;;;;23.92;8.77;;;6.30;99.90;;;;;;5045935;28;20044;-82
2021/11/08 04:04:30;;;;;;;25.88;8.40;;;5.80;99.90;;;;;;5063374;28;20047;-83
2021/11/08 04:06:59;;;;;;;26.48;8.68;;;5.80;99.90;;;;;;5062858;28;20068;-83
2021/11/08 04:09:28;;;;;;;27.77;11.80;;;5.80;99.90;;;;;;5064853;28;20056;-82
2021/11/08 04:11:57;;;;;;;18.95;8.25;;;5.80;99.90;;;;;;5043437;28;20060;-83
2021/11/08 04:14:26;;;;;;;18.25;7.90;;;5.80;99.90;;;;;;5062243;28;20053;-82
2021/11/08 04:16:54;;;;;;;23.63;9.05;;;5.80;99.90;;;;;;5064527;28;20045;-82
2021/11/08 04:19:28;;;;;;;44.88;9.27;;;5.80;99.90;;;;;;5063757;28;20049;-82
2021/11/08 04:22:05;;;;;;;26.35;9.80;;;6.00;99.90;;;;;;5063642;28;20045;-84
2021/11/08 04:24:37;;;;;;;38.03;10.35;;;5.90;99.90;;;;;;5046504;28;20044;-83
2021/11/08 04:27:06;;;;;;;26.23;8.73;;;5.80;99.90;;;;;;5062751;28;20742;-82
2021/11/08 04:29:34;;;;;;;26.88;8.77;;;5.80;99.90;;;;;;5062617;28;20048;-82
2021/11/08 04:32:04;;;;;;;19.95;8.95;;;5.80;99.90;;;;;;5065531;28;20060;-83
2021/11/08 04:34:53;;;;;;;22.17;8.05;;;5.70;99.90;;;;;;5063536;28;20049;-83
2021/11/08 04:37:51;;;;;;;30.60;8.20;;;5.70;99.90;;;;;;5063154;28;20055;-83
2021/11/08 04:40:27;;;;;;;21.45;7.80;;;5.70;99.90;;;;;;5062770;28;20037;-85
2021/11/08 04:46:09;;;;;;;23.90;9.38;;;6.00;99.90;;;;;;5062032;28;20048;-83
2021/11/08 04:51:53;;;;;;;28.48;10.90;;;5.80;99.90;;;;;;5062990;28;20052;-83
2021/11/08 04:57:16;;;;;;;22.23;7.70;;;5.70;99.90;;;;;;5062997;28;20718;-82
2021/11/08 05:30:15;;;;;;;25.20;7.43;;;5.70;99.90;;;;;;5062225;28;20048;-84
2021/11/08 05:32:49;;;;;;;20.70;6.63;;;5.60;99.90;;;;;;5062149;28;20040;-83
2021/11/08 05:35:19;;;;;;;21.55;6.95;;;4.20;99.90;;;;;;5062432;28;20040;-83
2021/11/08 05:37:47;;;;;;;25.83;7.47;;;5.60;99.90;;;;;;5045865;28;20056;-83
2021/11/08 05:40:22;;;;;;;23.75;8.52;;;5.70;99.90;;;;;;5078496;28;20045;-84
2021/11/08 05:42:51;;;;;;;28.52;7.88;;;5.60;99.90;;;;;;5079272;28;20051;-82
2021/11/08 05:45:19;;;;;;;27.35;8.23;;;5.80;99.90;;;;;;5061880;28;20072;-82
2021/11/08 05:47:52;;;;;;;22.58;7.07;;;5.60;99.90;;;;;;5068426;28;20051;-85
2021/11/08 05:50:24;;;;;;;21.10;7.60;;;5.80;99.90;;;;;;5059703;28;20044;-83
2021/11/08 05:53:05;;;;;;;;;;;;;;;;;;;;;
2021/11/08 06:49:45;;;;;;;30.38;7.65;;;5.10;99.90;;;;;;5056862;28;20060;-81
2021/11/08 06:52:18;;;;;;;22.73;7.60;;;5.40;99.90;;;;;;5057443;28;20049;-84
2021/11/08 06:55:06;;;;;;;25.55;6.90;;;6.00;99.90;;;;;;5052269;28;20051;-83
2021/11/08 06:57:46;;;;;;;33.20;10.02;;;5.40;99.90;;;;;;5065062;28;20049;-81
2021/11/08 07:00:17;;;;;;;23.73;7.70;;;6.30;99.90;;;;;;5047856;28;20060;-82
2021/11/08 07:02:46;;;;;;;17.05;6.18;;;4.90;99.90;;;;;;5077690;28;20049;-82
2021/11/08 07:05:15;;;;;;;34.70;10.52;;;5.40;99.90;;;;;;5060318;28;20357;-82
2021/11/08 07:07:47;;;;;;;21.30;7.20;;;5.40;99.90;;;;;;5061315;28;20053;-83
2021/11/08 07:10:20;;;;;;;22.58;8.85;;;5.30;99.90;;;;;;5064591;28;20047;-82
2021/11/08 07:12:50;;;;;;;30.80;7.37;;;5.30;99.90;;;;;;5039693;28;20057;-85
2021/11/08 07:15:25;;;;;;;28.77;7.72;;;5.30;99.90;;;;;;5059011;28;20298;-82
2021/11/08 07:17:59;;;;;;;36.95;10.70;;;5.20;99.90;;;;;;5058134;28;20063;-84
2021/11/08 07:20:31;;;;;;;20.35;6.65;;;4.70;99.90;;;;;;5058031;28;20037;-81
2021/11/08 07:23:01;;;;;;;24.05;7.10;;;5.30;99.90;;;;;;5061799;28;20057;-81
2021/11/08 07:25:29;;;;;;;19.08;6.57;;;5.20;99.90;;;;;;5064548;28;20044;-82
2021/11/08 07:27:58;;;;;;;17.38;7.07;;;5.40;99.90;;;;;;5080273;28;20048;-81
2021/11/08 07:30:27;;;;;;;22.90;8.10;;;5.30;99.90;;;;;;5063887;28;20049;-83
2021/11/08 07:32:56;;;;;;;22.65;6.22;;;5.30;99.90;;;;;;5049669;28;20045;-83
2021/11/08 07:35:25;;;;;;;24.98;7.50;;;5.30;99.90;;;;;;5047335;28;20051;-82
2021/11/08 07:37:53;;;;;;;23.58;7.78;;;5.40;99.90;;;;;;5023764;28;20057;-81
2021/11/08 07:40:21;;;;;;;20.30;6.57;;;5.40;99.90;;;;;;5060244;28;20045;-80
2021/11/08 07:42:50;;;;;;;25.90;7.90;;;5.40;99.90;;;;;;5055450;28;20037;-81
2021/11/08 07:45:24;;;;;;;25.70;8.73;;;6.00;99.90;;;;;;5059345;28;20049;-81
2021/11/08 07:47:54;;;;;;;22.23;8.27;;;4.80;99.90;;;;;;5069787;28;20041;-81
2021/11/08 07:50:39;;;;;;;24.33;8.45;;;4.50;99.90;;;;;;5047830;28;20058;-82
2021/11/08 07:53:09;;;;;;;44.10;11.45;;;5.60;99.90;;;;;;5060039;28;20441;-81
2021/11/08 07:55:39;;;;;;;23.97;8.97;;;5.60;99.90;;;;;;5075302;28;20055;-81
2021/11/08 07:58:08;;;;;;;37.28;7.65;;;4.20;99.90;;;;;;5043348;28;20052;-81
2021/11/08 08:00:41;;;;;;;29.48;8.38;;;5.70;99.90;;;;;;5035275;28;20056;-81
2021/11/08 08:03:12;;;;;;;37.50;10.73;;;5.70;99.90;;;;;;5061557;28;20047;-85
2021/11/08 08:05:49;;;;;;;22.65;7.63;;;5.80;99.90;;;;;;5045733;28;20052;-82
2021/11/08 08:08:19;;;;;;;34.63;10.98;;;5.90;99.90;;;;;;5041304;28;20053;-83
2021/11/08 08:10:52;;;;;;;22.55;8.10;;;5.90;99.90;;;;;;5059837;28;20056;-82
2021/11/08 08:13:26;;;;;;;22.60;9.48;;;6.00;99.90;;;;;;5041526;28;20041;-82
2021/11/08 08:16:00;;;;;;;21.50;7.25;;;6.10;99.90;;;;;;5044925;28;20055;-81
2021/11/08 08:18:34;;;;;;;26.70;7.63;;;6.20;99.90;;;;;;5060785;28;20045;-85
2021/11/08 08:21:07;;;;;;;24.77;9.45;;;6.10;99.90;;;;;;5040020;28;20053;-84
2021/11/08 08:24:19;;;;;;;16.98;6.85;;;6.40;99.90;;;;;;5080826;28;20059;-82
2021/11/08 08:26:50;;;;;;;20.70;8.07;;;6.60;99.90;;;;;;5076466;22;20040;-92
2021/11/08 08:29:27;;;;;;;25.30;8.70;;;6.60;99.90;;;;;;5049873;23;20052;-83
2021/11/08 08:37:21;;;;;;;19.15;6.88;;;6.70;99.90;;;;;;4955557;28;20548;-88
2021/11/08 08:41:54;;;;;;;;;;;;;;;;;;;;;
2021/11/08 08:45:23;;;;;;;23.80;7.10;;;6.20;99.90;;;;;;4822873;29;20047;-86
2021/11/08 08:48:11;;;;;;;24.15;6.53;;;7.00;99.90;;;;;;4814558;29;20070;-88
2021/11/08 09:04:25;;;;;;;21.33;6.95;;;7.40;99.90;;;;;;4883351;29;20113;-87
2021/11/08 09:07:23;;;;;;;;;;;7.70;99.90;;;;;;4916359;29;20063;-84
2021/11/08 09:12:06;;;;;;;;;;;;;;;;;;;;;
2021/11/08 09:19:37;;;;;;;23.70;6.07;;;7.80;99.90;;;;;;4956443;28;20295;-87
2021/11/08 09:23:41;;;;;;;20.15;7.20;;;8.00;99.90;;;;;;5011946;28;20037;-86
2021/11/08 09:27:50;;;;;;;25.85;7.20;;;8.10;99.90;;;;;;4956363;28;20048;-88
2021/11/08 09:49:51;;;;;;;;;;;;;;;;;;;;;
2021/11/08 10:08:37;;;;;;;56.92;11.75;;;10.10;99.90;;;;;;4847326;29;20040;-87
2021/11/08 10:25:21;;;;;;;19.48;6.63;;;9.40;99.90;;;;;;4812638;29;20047;-88
2021/11/08 10:29:05;;;;;;;;;;;;;;;;;;;;;
2021/11/08 10:37:08;;;;;;;30.13;7.40;;;8.90;99.90;;;;;;4782950;29;20062;-88
2021/11/08 10:41:20;;;;;;;;;;;;;;;;;;;;;
2021/11/08 10:44:50;;;;;;;25.15;7.80;;;9.20;99.90;;;;;;4789181;29;20043;-91
2021/11/08 10:48:29;;;;;;;23.08;6.55;;;10.30;99.90;;;;;;4823901;29;20031;-86
2021/11/08 10:52:17;;;;;;;21.20;6.10;;;10.20;99.90;;;;;;4844930;29;20042;-87
2021/11/08 10:56:11;;;;;;;15.00;5.63;;;10.40;99.90;;;;;;4847877;29;20049;-90
2021/11/08 11:00:48;;;;;;;;;;;;;;;;;;;;;
2021/11/08 11:04:55;;;;;;;;;;;;;;;;;;;;;
2021/11/08 11:08:14;;;;;;;18.77;6.15;;;10.80;99.90;;;;;;4946058;28;20055;-87
2021/11/08 11:24:28;;;;;;;17.42;5.75;;;11.10;99.90;;;;;;4895289;29;20048;-88
2021/11/08 11:27:26;;;;;;;35.67;10.85;;;10.90;99.90;;;;;;4916246;29;20434;-88
2021/11/08 11:35:44;;;;;;;;;;;;;;;;;;;;;
2021/11/08 11:45:12;;;;;;;;;;;;;;;;;;;;;
2021/11/08 11:48:36;;;;;;;21.33;4.88;;;11.50;99.90;;;;;;4920354;29;20058;-89
2021/11/08 11:51:43;;;;;;;22.13;6.13;;;11.60;99.90;;;;;;4931263;29;20036;-84
2021/11/08 11:54:32;;;;;;;12.55;4.18;;;11.20;99.90;;;;;;4927262;29;20099;-82
2021/11/08 11:57:01;;;;;;;22.02;6.90;;;12.00;99.90;;;;;;4953700;28;20046;-82
2021/11/08 11:59:30;;;;;;;48.90;8.48;;;12.10;99.90;;;;;;4970492;28;20063;-81
2021/11/08 12:02:00;;;;;;;13.55;6.53;;;12.10;99.90;;;;;;4950875;28;20051;-84
2021/11/08 12:04:30;;;;;;;23.23;5.75;;;12.10;99.90;;;;;;4937664;28;20043;-84
2021/11/08 12:07:02;;;;;;;17.33;3.40;;;12.20;99.90;;;;;;4971822;28;20070;-86
2021/11/08 12:09:35;;;;;;;28.35;4.75;;;12.30;99.90;;;;;;4954680;28;20420;-81
2021/11/08 12:12:07;;;;;;;13.85;3.60;;;12.40;99.90;;;;;;4958394;28;20062;-81
2021/11/08 12:14:37;;;;;;;15.45;4.18;;;12.50;99.90;;;;;;4938179;29;20058;-80
2021/11/08 12:17:17;;;;;;;17.80;4.40;;;12.60;99.90;;;;;;4948406;29;20050;-82
2021/11/08 12:19:46;;;;;;;14.75;3.97;;;12.60;99.90;;;;;;4963779;28;20058;-80
2021/11/08 12:22:17;;;;;;;20.52;5.53;;;12.70;99.90;;;;;;4946633;28;20089;-80
2021/11/08 12:25:05;;;;;;;12.18;3.50;;;12.80;99.90;;;;;;4966774;28;20059;-82
2021/11/08 12:27:45;;;;;;;10.95;3.97;;;12.90;99.90;;;;;;4936691;28;20070;-80
2021/11/08 12:30:32;;;;;;;10.43;3.38;;;13.10;99.90;;;;;;4991769;28;20054;-80
2021/11/08 12:33:07;;;;;;;10.85;4.10;;;13.30;99.90;;;;;;4997461;28;20057;-81
2021/11/08 12:35:47;;;;;;;10.98;2.55;;;13.50;99.90;;;;;;4982009;28;20058;-79
2021/11/08 12:38:21;;;;;;;15.93;4.00;;;13.60;99.90;;;;;;4999411;28;20054;-80
2021/11/08 12:41:11;;;;;;;12.85;3.20;;;13.60;99.90;;;;;;4974680;28;20062;-80
2021/11/08 12:43:49;;;;;;;16.15;4.22;;;13.60;99.90;;;;;;4980557;28;20053;-82
2021/11/08 12:46:21;;;;;;;10.68;3.30;;;13.50;99.90;;;;;;4996683;28;20061;-81
2021/11/08 12:49:09;;;;;;;15.15;3.25;;;13.40;99.90;;;;;;4979635;28;20054;-89
2021/11/08 12:51:40;;;;;;;10.02;2.88;;;13.40;99.90;;;;;;4982797;28;20054;-81
2021/11/08 12:54:10;;;;;;;17.55;4.13;;;13.30;99.90;;;;;;4974266;28;20053;-82
2021/11/08 12:56:43;;;;;;;14.90;5.53;;;13.30;99.90;;;;;;4980566;28;20409;-81
2021/11/08 12:59:23;;;;;;;9.07;3.08;;;13.30;99.90;;;;;;4964732;28;20054;-81
2021/11/08 13:01:53;;;;;;;15.00;3.97;;;13.30;99.90;;;;;;4979563;28;20060;-82
2021/11/08 13:04:31;;;;;;;14.98;3.53;;;13.40;99.90;;;;;;4968600;28;20077;-81
2021/11/08 13:07:11;;;;;;;11.07;3.17;;;13.40;99.90;;;;;;4962624;28;20082;-82
2021/11/08 13:09:47;;;;;;;13.75;3.38;;;13.40;99.90;;;;;;4977407;28;20046;-80
2021/11/08 13:12:36;;;;;;;14.93;4.15;;;13.40;99.90;;;;;;4965208;28;20072;-81
2021/11/08 13:15:35;;;;;;;15.57;4.85;;;13.40;99.90;;;;;;4965587;28;20060;-80
2021/11/08 13:18:12;;;;;;;15.48;3.53;;;13.40;99.90;;;;;;4982925;28;20061;-81
2021/11/08 13:20:46;;;;;;;15.80;3.95;;;14.00;99.90;;;;;;4994919;28;20054;-79
2021/11/08 13:23:20;;;;;;;11.60;3.60;;;13.50;99.90;;;;;;4980262;28;20060;-81
2021/11/08 13:25:54;;;;;;;16.83;3.78;;;13.40;99.90;;;;;;4967467;28;20042;-83
2021/11/08 13:28:34;;;;;;;16.85;4.55;;;13.40;99.90;;;;;;4955367;28;20235;-81
2021/11/08 13:31:11;;;;;;;18.55;3.72;;;13.40;99.90;;;;;;4978392;28;20050;-82
2021/11/08 13:33:47;;;;;;;14.20;4.00;;;13.40;99.90;;;;;;4988772;28;20058;-80
2021/11/08 13:36:16;;;;;;;14.15;3.47;;;13.50;99.90;;;;;;4978932;28;20042;-82
2021/11/08 13:38:52;;;;;;;14.60;5.13;;;13.40;99.90;;;;;;4977655;28;20054;-81
2021/11/08 13:41:30;;;;;;;22.08;4.40;;;13.40;99.90;;;;;;4963572;28;20053;-80
2021/11/08 13:44:06;;;;;;;14.07;3.83;;;13.40;99.90;;;;;;4976509;28;20073;-79
2021/11/08 13:46:38;;;;;;;9.55;3.42;;;13.40;99.90;;;;;;4981751;28;20050;-80
2021/11/08 13:49:13;;;;;;;17.65;3.92;;;13.50;99.90;;;;;;4980564;28;20058;-80
2021/11/08 13:51:54;;;;;;;7.63;2.83;;;13.50;99.90;;;;;;4988342;28;20066;-80
2021/11/08 13:54:24;;;;;;;;;;;13.60;99.90;;;;;;4980192;28;20050;-80
2021/11/08 13:57:00;;;;;;;15.50;3.58;;;13.60;99.90;;;;;;4997265;28;19961;-80
2021/11/08 13:59:35;;;;;;;9.85;3.08;;;13.60;99.90;;;;;;4978032;28;20044;-80
2021/11/08 14:02:16;;;;;;;14.27;3.42;;;13.60;99.90;;;;;;4975858;28;20065;-81
2021/11/08 14:04:51;;;;;;;7.80;2.65;;;13.60;99.90;;;;;;4987327;28;20527;-80
2021/11/08 14:07:28;;;;;;;17.83;4.40;;;13.60;99.90;;;;;;4981669;28;20154;-82
2021/11/08 14:09:57;;;;;;;14.60;3.85;;;13.70;99.90;;;;;;4965211;28;20057;-82
2021/11/08 14:12:29;;;;;;;14.85;4.00;;;13.80;99.90;;;;;;5031009;28;20045;-81
2021/11/08 14:14:59;;;;;;;12.60;3.33;;;13.80;99.90;;;;;;5053426;28;20490;-81
2021/11/08 14:17:34;;;;;;;14.10;3.65;;;13.80;99.90;;;;;;5059637;28;20060;-78
2021/11/08 14:20:11;;;;;;;13.20;4.97;;;13.70;99.90;;;;;;5063293;28;20041;-83
2021/11/08 14:22:43;;;;;;;8.95;3.70;;;13.60;99.90;;;;;;5044178;28;20045;-80
2021/11/08 14:25:13;;;;;;;11.38;4.05;;;13.50;99.90;;;;;;5026755;28;20052;-80
2021/11/08 14:27:42;;;;;;;14.50;4.43;;;13.50;99.90;;;;;;5059262;28;20045;-81
2021/11/08 14:30:17;;;;;;;17.92;4.55;;;13.40;99.90;;;;;;5044321;28;20057;-81
2021/11/08 14:32:46;;;;;;;16.55;3.88;;;13.50;99.90;;;;;;5062353;28;20178;-80
2021/11/08 14:35:21;;;;;;;18.33;4.38;;;13.50;99.90;;;;;;5063553;28;20071;-82
2021/11/08 14:38:12;;;;;;;13.45;3.97;;;13.50;99.90;;;;;;5062932;28;20049;-79
2021/11/08 14:40:45;;;;;;;17.67;4.35;;;13.50;99.90;;;;;;5060077;28;20045;-81
2021/11/08 14:43:15;;;;;;;12.80;5.50;;;13.50;99.90;;;;;;5035799;28;20055;-80
2021/11/08 14:46:12;;;;;;;11.90;3.58;;;13.50;99.90;;;;;;5044483;28;20052;-82
2021/11/08 14:48:43;;;;;;;11.20;4.20;;;13.50;99.90;;;;;;5058134;28;20040;-81
2021/11/08 14:51:28;;;;;;;14.43;4.00;;;13.50;99.90;;;;;;5044498;28;20088;-81
2021/11/08 14:54:02;;;;;;;24.90;5.28;;;13.40;99.90;;;;;;5053927;28;20051;-81
2021/11/08 14:56:36;;;;;;;15.32;5.22;;;13.30;99.90;;;;;;5064585;28;20067;-83
2021/11/08 14:59:11;;;;;;;13.60;4.22;;;13.30;99.90;;;;;;5050405;28;20047;-84
2021/11/08 15:01:43;;;;;;;17.02;4.28;;;12.90;99.90;;;;;;5040875;28;20057;-81
2021/11/08 15:04:21;;;;;;;18.92;4.70;;;13.20;99.90;;;;;;5062220;28;20041;-80
2021/11/08 15:07:03;;;;;;;18.17;5.22;;;13.40;99.90;;;;;;5037292;28;20048;-82
2021/11/08 15:09:51;;;;;;;16.33;3.40;;;13.10;99.90;;;;;;5064014;28;20388;-82
2021/11/08 15:12:26;;;;;;;21.13;5.72;;;13.10;99.90;;;;;;5032810;28;20213;-81
2021/11/08 15:15:20;;;;;;;15.30;4.57;;;13.00;99.90;;;;;;5059492;28;20060;-84
2021/11/08 15:17:52;;;;;;;16.55;3.88;;;13.00;99.90;;;;;;5047729;28;20049;-82
2021/11/08 15:20:26;;;;;;;15.38;4.55;;;13.00;99.90;;;;;;5061540;28;20052;-84
2021/11/08 15:23:10;;;;;;;14.18;4.95;;;12.90;99.90;;;;;;5073947;28;20041;-84
2021/11/08 15:25:46;;;;;;;13.85;3.58;;;12.60;99.90;;;;;;5043121;28;20048;-84
2021/11/08 15:28:19;;;;;;;21.17;5.78;;;13.10;99.90;;;;;;5056885;28;20053;-81
2021/11/08 15:31:04;;;;;;;21.38;4.28;;;12.90;99.90;;;;;;5062950;28;20033;-83
2021/11/08 15:33:51;;;;;;;11.67;3.67;;;12.70;99.90;;;;;;4693516;28;10000533;-81
2021/11/08 15:36:59;;;;;;;19.40;4.30;;;12.70;99.90;;;;;;4684533;28;9999851;-84
2021/11/08 15:39:35;;;;;;;8.93;3.55;;;12.70;99.90;;;;;;5044081;28;20040;-87
2021/11/08 15:42:10;;;;;;;16.23;4.70;;;12.70;99.90;;;;;;5071178;28;20060;-83
2021/11/08 15:44:39;;;;;;;21.38;6.10;;;12.70;99.90;;;;;;5061481;28;20053;-85
2021/11/08 15:47:25;;;;;;;13.27;4.18;;;12.60;99.90;;;;;;5070471;28;20044;-84
2021/11/08 15:50:59;;;;;;;;;;;;;;;;;;;;;
2021/11/08 15:57:58;;;;;;;16.38;5.15;;;12.50;99.90;;;;;;4983135;28;20077;-87
2021/11/08 16:01:10;;;;;;;13.18;4.60;;;12.60;99.90;;;;;;4970421;28;20042;-85
2021/11/08 16:03:44;;;;;;;13.50;5.13;;;12.50;99.90;;;;;;5002581;28;20050;-86
2021/11/08 16:07:00;;;;;;;;;;;;;;;;;;;;;
2021/11/08 16:10:35;;;;;;;22.37;4.80;;;12.40;99.90;;;;;;4956088;28;20412;-88
2021/11/08 16:13:22;;;;;;;27.35;4.97;;;12.40;99.90;;;;;;5000351;28;20065;-84
2021/11/08 16:15:56;;;;;;;17.65;4.95;;;12.70;99.90;;;;;;4990013;28;20422;-82
2021/11/08 16:18:24;;;;;;;14.65;5.70;;;12.40;99.90;;;;;;4979697;28;20046;-84
2021/11/08 16:20:56;;;;;;;13.02;4.72;;;12.30;99.90;;;;;;4969727;28;20578;-82
2021/11/08 16:23:25;;;;;;;22.67;5.22;;;12.30;99.90;;;;;;4999578;28;20065;-82
2021/11/08 16:25:55;;;;;;;13.65;5.30;;;12.30;99.90;;;;;;4986802;28;20055;-82
2021/11/08 16:28:24;;;;;;;22.63;7.30;;;12.30;99.90;;;;;;5003767;28;20054;-80
2021/11/08 16:30:58;;;;;;;13.50;4.97;;;12.30;99.90;;;;;;4978433;28;20062;-84
2021/11/08 16:33:30;;;;;;;19.08;5.50;;;12.30;99.90;;;;;;4986833;28;20042;-83
2021/11/08 16:35:59;;;;;;;26.98;7.25;;;12.20;99.90;;;;;;4987136;28;20055;-81
2021/11/08 16:38:31;;;;;;;19.55;6.45;;;12.20;99.90;;;;;;4968131;28;20053;-81
2021/11/08 16:41:00;;;;;;;;;;;12.20;99.90;;;;;;5001553;28;20064;-80
2021/11/08 16:43:32;;;;;;;31.08;6.07;;;12.20;99.90;;;;;;4968128;28;19925;-84
2021/11/08 16:46:08;;;;;;;13.25;4.88;;;12.20;99.90;;;;;;5001386;28;20459;-80
2021/11/08 16:48:47;;;;;;;17.33;5.97;;;12.10;99.90;;;;;;5000898;28;20050;-79
2021/11/08 16:51:24;;;;;;;21.58;6.22;;;12.20;99.90;;;;;;5062737;28;20061;-80
2021/11/08 16:53:59;;;;;;;;;;;12.10;99.90;;;;;;5062491;28;20051;-80
2021/11/08 16:56:28;;;;;;;15.40;5.07;;;12.10;99.90;;;;;;5080456;28;19987;-81
2021/11/08 16:58:57;;;;;;;20.55;5.97;;;12.10;99.90;;;;;;5069456;28;20060;-80
2021/11/08 17:01:26;;;;;;;19.42;7.53;;;12.00;99.90;;;;;;5053474;28;20037;-80
2021/11/08 17:03:56;;;;;;;19.08;6.00;;;12.00;99.90;;;;;;5064395;28;20049;-80
2021/11/08 17:06:26;;;;;;;13.07;5.30;;;12.10;99.90;;;;;;5060173;28;20055;-80
2021/11/08 17:09:00;;;;;;;25.17;6.15;;;12.00;99.90;;;;;;5060346;28;20056;-80
2021/11/08 17:14:22;;;;;;;21.50;6.88;;;12.00;99.90;;;;;;5073091;28;20053;-78
2021/11/08 17:16:50;;;;;;;15.45;5.65;;;11.90;99.90;;;;;;5046814;28;20058;-80
2021/11/08 17:19:19;;;;;;;17.05;5.72;;;11.90;99.90;;;;;;5048538;28;20048;-79
2021/11/08 17:21:47;;;;;;;20.73;7.15;;;11.90;99.90;;;;;;5087539;28;20042;-80
2021/11/08 17:24:17;;;;;;;17.75;6.47;;;11.90;99.90;;;;;;5062596;28;20041;-79
2021/11/08 17:26:49;;;;;;;19.90;6.97;;;11.90;99.90;;;;;;5062107;28;20580;-79
2021/11/08 17:29:21;;;;;;;29.38;8.25;;;11.90;99.90;;;;;;5061780;28;20036;-78
2021/11/08 17:31:51;;;;;;;23.67;8.82;;;11.90;99.90;;;;;;5056092;28;20049;-80